createdAt,value
2023-05-15T09:57:38.327Z,15.25
2023-05-15T09:58:38.285Z,15.44
2023-05-15T10:00:25.906Z,16.01
2023-05-15T10:01:25.686Z,16.02
2023-05-15T10:02:25.675Z,15.74
2023-05-15T10:03:25.654Z,15.83
2023-05-15T10:04:25.639Z,16.07
2023-05-15T10:05:41.598Z,15.90
2023-05-15T10:11:59.531Z,15.93
2023-05-15T10:12:59.492Z,16.12
2023-05-15T10:13:59.486Z,16.21
2023-05-15T10:14:59.580Z,16.41
2023-05-15T10:15:59.521Z,16.09
2023-05-15T10:16:59.430Z,16.17
2023-05-15T10:17:59.489Z,16.07
2023-05-15T10:18:59.421Z,15.97
2023-05-15T10:19:59.423Z,15.76
2023-05-15T10:20:59.399Z,16.02
2023-05-15T10:21:59.353Z,16.56
2023-05-15T10:22:59.365Z,16.85
2023-05-15T10:24:06.899Z,17.15
2023-05-15T10:24:59.361Z,17.22
2023-05-15T10:25:59.295Z,16.88
2023-05-15T10:26:59.304Z,16.94
2023-05-15T10:27:59.285Z,16.89
2023-05-15T10:28:59.279Z,16.81
2023-05-15T10:29:59.264Z,16.70
2023-05-15T10:30:59.280Z,16.83
2023-05-15T10:31:59.271Z,16.58
2023-05-15T10:32:59.209Z,16.60
2023-05-15T10:33:59.173Z,16.79
2023-05-15T10:34:59.202Z,16.88
2023-05-15T10:35:59.165Z,16.68
2023-05-15T10:36:59.136Z,16.63
2023-05-15T10:37:59.120Z,16.98
2023-05-15T10:38:59.109Z,17.14
2023-05-15T10:39:59.098Z,17.30
2023-05-15T10:41:13.039Z,17.22
2023-05-15T10:41:59.077Z,17.31
2023-05-15T10:42:59.080Z,17.14
2023-05-15T10:43:59.046Z,16.86
2023-05-15T10:44:59.049Z,16.83
2023-05-15T10:45:59.002Z,17.07
2023-05-15T10:46:59.045Z,17.21
2023-05-15T10:47:59.043Z,16.96
2023-05-15T10:48:58.959Z,16.61
2023-05-15T10:49:58.942Z,16.61
2023-05-15T10:50:58.959Z,16.63
2023-05-15T10:51:58.904Z,16.73
2023-05-15T10:52:58.905Z,16.96
2023-05-15T10:53:58.879Z,17.07
2023-05-15T10:54:58.872Z,17.16
2023-05-15T10:55:58.915Z,17.33
2023-05-15T10:56:58.850Z,17.31
2023-05-15T10:57:58.826Z,17.66
2023-05-15T10:58:58.824Z,17.79
2023-05-15T10:59:58.810Z,17.95
2023-05-15T11:00:58.820Z,18.29
2023-05-15T11:01:58.779Z,18.51
2023-05-15T11:02:58.878Z,18.99
2023-05-15T11:03:58.763Z,19.19
2023-05-15T11:04:58.744Z,19.46
2023-05-15T11:05:58.720Z,19.32
2023-05-15T11:06:58.700Z,19.41
2023-05-15T11:07:58.687Z,19.43
2023-05-15T11:08:58.669Z,19.47
2023-05-15T11:09:58.649Z,18.91
2023-05-15T11:10:58.653Z,18.44
2023-05-15T11:11:58.634Z,18.44
2023-05-15T11:12:58.605Z,18.62
2023-05-15T11:13:58.588Z,18.76
2023-05-15T11:14:58.578Z,18.88
2023-05-15T11:15:58.571Z,19.02
2023-05-15T11:16:58.590Z,19.44
2023-05-15T11:17:58.562Z,19.55
2023-05-15T11:18:58.578Z,19.56
2023-05-15T11:19:58.570Z,19.55
2023-05-15T11:20:58.527Z,19.71
2023-05-15T11:21:58.495Z,19.71
2023-05-15T11:22:58.464Z,19.73
2023-05-15T11:23:58.468Z,19.92
2023-05-15T11:24:58.470Z,20.08
2023-05-15T11:25:58.443Z,20.06
2023-05-15T11:26:59.244Z,20.18
2023-05-15T11:27:58.384Z,20.03
2023-05-15T11:28:58.378Z,20.03
2023-05-15T11:29:58.385Z,19.58
2023-05-15T11:30:58.408Z,19.32
2023-05-15T11:31:58.354Z,19.44
2023-05-15T11:32:58.598Z,19.83
2023-05-15T11:33:58.303Z,20.32
2023-05-15T11:34:58.379Z,20.67
2023-05-15T11:35:58.293Z,21.12
2023-05-15T11:36:58.287Z,20.88
2023-05-15T11:37:58.264Z,21.12
2023-05-15T11:38:58.236Z,21.04
2023-05-15T11:39:58.249Z,20.48
2023-05-15T11:40:58.236Z,20.13
2023-05-15T11:41:59.299Z,20.13
2023-05-15T11:42:58.204Z,20.26
2023-05-15T11:43:58.160Z,19.81
2023-05-15T11:44:58.173Z,20.10
2023-05-15T11:45:58.221Z,20.18
2023-05-15T11:46:58.226Z,19.99
2023-05-15T11:47:58.159Z,19.99
2023-05-15T11:48:59.493Z,20.48
2023-05-15T11:49:58.102Z,20.26
2023-05-15T11:50:58.108Z,20.33
2023-05-15T11:51:58.063Z,21.03
2023-05-15T11:52:58.074Z,21.52
2023-05-15T11:53:58.027Z,21.71
2023-05-15T11:54:58.029Z,22.03
2023-05-15T11:55:58.020Z,22.00
2023-05-15T11:56:58.006Z,21.92
2023-05-15T11:57:57.971Z,21.92
2023-05-15T11:58:57.988Z,21.54
2023-05-15T11:59:57.965Z,21.72
2023-05-15T12:00:57.976Z,22.31
2023-05-15T12:01:57.943Z,22.20
2023-05-15T12:02:58.036Z,22.03
2023-05-15T12:03:58.140Z,22.02
2023-05-15T12:04:57.931Z,21.27
2023-05-15T12:06:00.000Z,21.28
2023-05-15T12:06:57.912Z,21.29
2023-05-15T12:07:57.859Z,21.29
2023-05-15T12:08:57.834Z,21.50
2023-05-15T12:09:58.654Z,21.46
2023-05-15T12:10:57.835Z,21.09
2023-05-15T12:11:57.811Z,20.64
2023-05-15T12:12:57.817Z,20.91
2023-05-15T12:13:57.761Z,21.10
2023-05-15T12:14:57.788Z,21.01
2023-05-15T12:15:57.758Z,21.38
2023-05-15T12:16:57.865Z,21.83
2023-05-15T12:17:57.771Z,21.80
2023-05-15T12:18:57.910Z,22.05
2023-05-15T12:19:57.708Z,22.10
2023-05-15T12:20:57.689Z,21.96
2023-05-15T12:21:57.682Z,22.07
2023-05-15T12:22:57.653Z,21.82
2023-05-15T12:24:06.910Z,21.88
2023-05-15T12:24:57.644Z,22.03
2023-05-15T12:25:57.613Z,22.46
2023-05-15T12:26:57.804Z,23.16
2023-05-15T12:27:57.582Z,22.83
2023-05-15T12:28:57.624Z,22.95
2023-05-15T12:29:57.587Z,23.36
2023-05-15T12:30:57.574Z,23.70
2023-05-15T12:31:57.610Z,23.12
2023-05-15T12:32:57.564Z,23.09
2023-05-15T12:33:57.545Z,23.16
2023-05-15T12:34:57.510Z,22.43
2023-05-15T12:36:01.056Z,21.72
2023-05-15T12:36:57.478Z,22.00
2023-05-15T12:37:57.478Z,22.58
2023-05-15T12:38:57.448Z,23.20
2023-05-15T12:39:57.477Z,23.53
2023-05-15T12:40:57.423Z,23.36
2023-05-15T12:41:57.428Z,23.76
2023-05-15T12:42:57.443Z,24.10
2023-05-15T12:43:57.405Z,23.93
2023-05-15T12:44:57.405Z,23.12
2023-05-15T12:45:57.441Z,22.57
2023-05-15T12:46:57.374Z,22.68
2023-05-15T12:47:57.386Z,22.55
2023-05-15T12:48:57.352Z,22.57
2023-05-15T12:49:57.331Z,22.61
2023-05-15T12:50:57.310Z,22.75
2023-05-15T12:51:57.290Z,22.70
2023-05-15T12:52:57.294Z,22.70
2023-05-15T12:53:57.266Z,22.65
2023-05-15T12:54:57.300Z,22.86
2023-05-15T12:55:57.242Z,23.05
2023-05-15T12:56:57.692Z,22.98
2023-05-15T12:57:57.245Z,23.72
2023-05-15T12:58:57.269Z,23.73
2023-05-15T12:59:57.219Z,23.55
2023-05-15T13:00:57.226Z,23.50
2023-05-15T13:01:57.297Z,23.33
2023-05-15T13:02:57.279Z,23.28
2023-05-15T13:03:57.409Z,22.92
2023-05-15T13:04:57.204Z,23.15
2023-05-15T13:05:57.173Z,23.65
2023-05-15T13:06:57.177Z,23.27
2023-05-15T13:07:57.107Z,23.65
2023-05-15T13:08:57.102Z,23.53
2023-05-15T13:09:57.124Z,23.09
2023-05-15T13:10:57.130Z,22.83
2023-05-15T13:12:47.654Z,21.94
2023-05-15T13:13:47.579Z,22.00
2023-05-15T13:14:47.573Z,22.06
2023-05-15T13:15:47.596Z,22.43
2023-05-15T13:16:47.534Z,22.27
2023-05-15T13:17:47.521Z,22.12
2023-05-15T13:18:47.606Z,22.30
2023-05-15T13:19:47.502Z,22.55
2023-05-15T13:20:47.506Z,23.33
2023-05-15T13:21:47.461Z,24.09
2023-05-15T13:22:47.461Z,24.61
2023-05-15T13:23:47.452Z,24.69
2023-05-15T13:24:47.469Z,24.34
2023-05-15T13:25:47.460Z,24.21
2023-05-15T13:26:47.459Z,24.58
2023-05-15T13:27:47.421Z,24.61
2023-05-15T13:28:47.460Z,24.21
2023-05-15T13:29:47.394Z,23.00
2023-05-15T13:30:47.413Z,23.16
2023-05-15T13:31:47.392Z,23.54
2023-05-15T13:32:47.420Z,23.61
2023-05-15T13:33:47.339Z,23.39
2023-05-15T13:34:47.343Z,22.46
2023-05-15T13:35:47.362Z,22.92
2023-05-15T13:36:47.343Z,23.38
2023-05-15T13:37:47.331Z,23.36
2023-05-15T13:38:47.336Z,23.63
2023-05-15T13:39:47.319Z,23.84
2023-05-15T13:40:47.308Z,24.06
2023-05-15T13:41:47.289Z,24.10
2023-05-15T13:42:47.266Z,24.18
2023-05-15T13:43:47.265Z,23.61
2023-05-15T13:44:47.274Z,23.16
2023-05-15T13:45:47.262Z,23.33
2023-05-15T13:46:47.260Z,23.58
2023-05-15T13:47:47.262Z,23.48
2023-05-15T13:48:47.247Z,22.88
2023-05-15T13:49:47.213Z,23.42
2023-05-15T13:50:47.256Z,23.28
2023-05-15T13:51:47.178Z,22.91
2023-05-15T13:52:47.186Z,22.77
2023-05-15T13:53:47.158Z,22.43
2023-05-15T13:54:47.159Z,22.28
2023-05-15T13:57:20.793Z,21.38
2023-05-15T13:58:20.754Z,21.74
2023-05-15T13:59:20.764Z,22.17
2023-05-15T14:00:20.725Z,23.01
2023-05-15T14:01:20.784Z,23.55
2023-05-15T14:02:20.725Z,23.36
2023-05-15T14:03:20.848Z,23.61
2023-05-15T14:04:20.791Z,24.02
2023-05-15T14:09:18.115Z,21.28
2023-05-15T14:10:18.107Z,21.96
2023-05-15T14:11:18.112Z,22.58
2023-05-15T14:13:48.709Z,21.86
2023-05-15T14:18:09.875Z,21.94
2023-05-15T14:19:09.880Z,22.12
2023-05-15T14:20:48.916Z,21.75
2023-05-15T14:21:48.879Z,22.25
2023-05-15T14:22:48.883Z,21.69
2023-05-15T14:23:48.848Z,21.69
2023-05-15T14:24:48.861Z,21.58
2023-05-15T14:26:01.727Z,21.07
2023-05-15T14:27:43.409Z,21.25
2023-05-15T14:30:32.230Z,21.54
2023-05-15T14:31:32.204Z,22.15
2023-05-15T14:32:32.202Z,23.04
2023-05-15T14:33:32.206Z,23.39
2023-05-15T14:38:40.252Z,21.86
2023-05-15T14:39:40.231Z,22.51
2023-05-15T14:40:40.229Z,22.80
2023-05-15T14:41:40.231Z,22.77
2023-05-15T14:42:40.198Z,22.60
2023-05-15T14:43:40.186Z,22.37
2023-05-15T14:44:40.170Z,23.04
2023-05-15T14:45:40.164Z,23.38
2023-05-15T14:46:40.296Z,23.39
2023-05-15T14:47:40.157Z,23.31
2023-05-15T14:48:40.146Z,23.61
2023-05-15T14:49:40.143Z,23.98
2023-05-15T14:50:40.130Z,24.37
2023-05-15T14:51:40.122Z,24.62
2023-05-15T14:52:40.095Z,24.57
2023-05-15T14:53:40.111Z,24.73
2023-05-15T14:54:40.097Z,25.03
2023-05-15T14:55:40.108Z,25.14
2023-05-15T14:56:40.065Z,25.35
2023-05-15T14:57:40.055Z,25.45
2023-05-15T14:58:40.057Z,25.30
2023-05-15T14:59:40.047Z,25.27
2023-05-15T15:00:40.023Z,24.80
2023-05-15T15:01:40.327Z,23.90
2023-05-15T15:02:40.033Z,23.95
2023-05-15T15:03:40.124Z,22.91
2023-05-15T15:04:39.992Z,22.88
2023-05-15T15:05:40.014Z,22.47
2023-05-15T15:06:39.991Z,22.31
2023-05-15T15:07:39.980Z,22.07
2023-05-15T15:08:39.976Z,22.30
2023-05-15T15:09:39.975Z,22.49
2023-05-15T15:10:39.977Z,22.25
2023-05-15T15:11:39.957Z,22.62
2023-05-15T15:12:39.962Z,23.16
2023-05-15T15:13:39.946Z,23.61
2023-05-15T15:14:39.913Z,23.72
2023-05-15T15:15:39.914Z,23.42
2023-05-15T15:18:15.902Z,22.17
2023-05-15T15:19:18.969Z,22.58
2023-05-15T15:20:15.880Z,23.05
2023-05-15T15:21:15.923Z,22.97
2023-05-15T15:22:15.952Z,22.75
2023-05-15T15:23:15.910Z,23.19
2023-05-15T15:24:15.878Z,23.91
2023-05-15T15:41:34.496Z,20.79
2023-05-15T15:47:05.974Z,20.48
2023-05-15T15:48:05.986Z,20.54
2023-05-15T15:50:12.760Z,20.73
2023-05-15T15:51:12.776Z,20.97
2023-05-15T15:52:12.731Z,21.16
2023-05-15T16:00:27.454Z,21.01
2023-05-15T16:01:27.415Z,21.32
2023-05-15T16:02:27.364Z,21.69
2023-05-15T16:05:29.638Z,21.40
2023-05-15T16:09:56.965Z,20.73
2023-05-15T16:10:49.178Z,20.99
2023-05-15T16:11:49.136Z,21.14
2023-05-15T16:13:42.045Z,21.01
2023-05-15T16:20:58.485Z,20.39
2023-05-15T16:21:58.371Z,20.69
2023-05-15T16:22:58.358Z,21.01
2023-05-15T16:27:47.036Z,20.08
2023-05-15T16:28:46.980Z,20.57
2023-05-15T16:29:46.997Z,21.17
2023-05-15T16:30:49.260Z,21.06
2023-05-15T16:31:47.111Z,21.29
2023-05-15T16:33:43.725Z,21.16
2023-05-15T16:34:43.733Z,21.43
2023-05-15T16:35:43.717Z,21.56
2023-05-15T16:36:43.728Z,21.43
2023-05-15T16:37:43.675Z,21.40
2023-05-15T16:38:43.675Z,21.56
2023-05-15T16:39:43.662Z,21.21
2023-05-15T16:40:43.652Z,21.01
2023-05-15T16:41:43.648Z,20.74
2023-05-15T16:43:10.427Z,20.88
2023-05-15T16:44:10.399Z,20.85
2023-05-15T16:45:10.382Z,21.09
2023-05-15T16:46:10.458Z,20.85
2023-05-15T16:47:10.438Z,20.72
2023-05-15T16:48:10.424Z,20.48
2023-05-15T16:49:10.362Z,20.14
2023-05-15T17:02:08.564Z,18.67
2023-05-15T17:04:02.077Z,18.60
2023-05-15T17:05:02.011Z,18.60
2023-05-15T17:06:01.988Z,18.55
2023-05-15T17:15:02.669Z,18.30
